Logo AVAMET
Benvolgut visitant, si us plau, ingressa Recuperar contrasenya

Inforatge Riola

Dades diàries. Acumulats / Últims 30 dies disponibles

Data Temperatura (°C) Humitat rel. (%) Pressió rel. (hPa) Vent (km/h) Precipitació
Mínima Mitjana Màxima Amplitud
tèrmica
Mínima Mitjana Màxima Mínima Mitjana Màxima Predom. Mitjana Ràfega
màxima
Total
(mm)
Índex-n
Mínima Mitjana Màxima Mínima Mitjana Màxima n
0 a 1
P0 max
mm 5'
Dades mensuals acumulades fins l'últim dia disponible
06/2019 13,5 16,5 19,9 21,9 21,5 27,0 31,9 18,4 17 68 92 1.007 1.015 1.024   5,2 45,0 0,0
Dades anuals acumulades fins l'últim dia disponible
2019 1,8 10,6 20,7 15,7 13,2 21,1 33,3 31,5 15 67 96 994 1.019 1.036   5,0 63,0 167,2
Últims 30 dies disponibles
24-06-2019 18,4     23,2     27,2 8,8 56 78 92 1.014 1.015 1.016 SO 2,8 19,3 0,0
23-06-2019 18,7     23,8     27,9 9,2 49 73 91 1.013 1.015 1.016 SSE 5,0 29,6 0,0
22-06-2019 18,1     22,4     25,9 7,8 62 77 88 1.014 1.017 1.018 SSE 4,2 24,1 0,0
21-06-2019 19,3     22,6     26,2 6,9 62 78 91 1.013 1.015 1.017 S 2,9 22,6 0,0
20-06-2019 18,1     22,0     25,2 7,1 68 78 87 1.012 1.013 1.014 SSE 3,2 22,6 0,0
19-06-2019 17,8     24,3     31,9 14,1 33 65 89 1.010 1.012 1.014 S 5,8 33,9 0,0
18-06-2019 16,3     22,9     29,2 12,9 45 71 89 1.011 1.014 1.016 S 5,8 29,6 0,0
17-06-2019 16,5     23,2     30,5 14,0 33 67 92 1.013 1.016 1.019 S 5,2 29,6 0,0
16-06-2019 16,0     20,4     23,8 7,8 69 76 85 1.018 1.020 1.022 SSE 3,3 22,6 0,0
15-06-2019 19,9     24,7     31,6 11,7 22 41 84 1.013 1.016 1.019 SSO 8,1 38,9 0,0
14-06-2019 16,2     22,8     29,6 13,4 41 62 86 1.009 1.011 1.013 SE 4,4 32,2 0,0
13-06-2019 13,5     21,3     23,3 9,8 61 69 84 1.012 1.013 1.015 E 5,7 32,2 0,0
12-06-2019 13,5     19,8     21,5 8,0 45 63 79 1.014 1.015 1.017 E 7,1 32,2 0,0
11-06-2019 17,4     20,2     22,8 5,4 53 70 87 1.010 1.012 1.015 E 5,9 32,2 0,0
10-06-2019 16,1     21,1     25,3 9,2 35 73 89 1.011 1.013 1.015 SE 5,8 40,7 0,0
09-06-2019 16,8     21,0     28,1 11,3 31 64 88 1.012 1.016 1.021 SE 4,0 27,8 0,0
08-06-2019 18,1     20,7     22,7 4,6 61 73 90 1.019 1.022 1.024 ENE 5,0 31,5 0,0
07-06-2019 15,5     23,0     31,4 15,9 22 60 91 1.011 1.014 1.019 SO 5,5 31,5 0,0
06-06-2019 13,9     20,0     23,8 9,9 51 73 88 1.010 1.013 1.015 S 6,5 31,5 0,0
05-06-2019 17,4     22,8     29,3 11,9 17 58 90 1.007 1.009 1.013 OSO 7,6 45,0 0,0
04-06-2019 16,0     21,4     28,5 12,5 48 79 91 1.007 1.011 1.016 S 5,0 27,8 0,0
03-06-2019 14,8     21,4     28,3 13,5 40 68 89 1.014 1.017 1.019 S 4,8 27,8 0,0
02-06-2019 14,1     21,0     27,2 13,1 36 61 86 1.017 1.019 1.021 SSO 6,2 32,2 0,0
01-06-2019 13,8     20,7     26,5 12,7 33 64 90 1.020 1.022 1.024 SSE 6,0 31,5 0,0
31-05-2019 13,2     20,3     25,2 12,0 36 63 87 1.022 1.024 1.025 S 6,1 35,4 0,0
30-05-2019 12,8     19,8     25,6 12,8 37 59 85 1.023 1.024 1.026 SSO 4,9 27,8 0,0
29-05-2019 13,1     18,9     23,9 10,8 30 57 87 1.018 1.021 1.024 S 4,3 27,8 0,0
28-05-2019 16,4     19,8     23,1 6,7 48 71 93 1.013 1.014 1.018 S 5,8 32,2 0,0
27-05-2019 14,3     20,0     24,8 10,5 47 73 91 1.010 1.013 1.016 S 4,9 31,5 0,0
26-05-2019 15,5     21,5     23,2 7,7 48 61 86 1.015 1.016 1.017 SE 7,5 31,5
Últims 13 mesos disponibles
05/2019 9,3 13,9 20,7 19,0 16,9 23,7 33,3 24,0 48 70 87 1.005 1.015 1.024 S 5,3 50,0 5,6
04/2019 8,8 11,4 15,7 15,6 15,0 20,4 30,4 21,6 45 71 95 1.000 1.014 1.026 O 6,0 50,0 135,2
03/2019 5,6 8,4 14,8 14,2 13,2 20,4 28,8 23,2 42 65 92 1.012 1.023 1.030 SO 4,0 40,7 24,6
02/2019 4,8 7,0 11,6 12,4 13,3 18,5 26,1 21,3 38 67 87 995 1.025 1.034 SSO 4,7 63,0 0,6
01/2019 1,8 6,8 13,3 11,4 13,2 17,3 21,3 19,5 42 62 83 1.003 1.020 1.031 OSO 4,7 53,7 1,2
12/2018 4,1 8,4 13,0 13,3 14,1 19,1 24,1 20,0 48 73 89 1.009 1.026 1.031 O 4,0 55,6 20,0
11/2018 6,8 11,8 15,6 15,3 14,8 19,1 23,8 17,0 49 72 94 1.001 1.016 1.025 2,6 55,6 268,4
10/2018 7,5 14,7 19,4 18,6 14,9 23,3 29,7 22,2 49 77 93 1.001 1.015 1.026 SO 3,3 45,0 117,4
09/2018 16,1 20,2 22,4 24,1 23,6 28,3 31,8 15,7 66 81 91 1.013 1.019 1.030 3,2 61,1 105,8
08/2018 19,8 22,9 26,9 27,0 27,4 31,5 36,3 16,5 62 74 83 1.013 1.017 1.022 4,9 46,7 28,6
07/2018 21,4 22,7 25,1 27,0 28,6 31,7 37,1 15,7 41 74 82 1.010 1.014 1.017 5,0 42,6 3,6
06/2018 14,9 19,0 22,8 23,8 23,9 28,6 31,9 17,0 39 67 81 1.010 1.016 1.021 4,9 35,4 52,8
Tots els anys disponibles
2018 1,4 14,2 26,9 18,5 8,5 23,3 37,1 35,7 39 71 94 994 1.017 1.036 SSO 4,6 61,1 718,2
Temperatura (°C)
Humitat relativa (%)
Velocitat del vent i ràfega màxima (km/h)
Direcció del vent (°)
Pressió (hPa)
Precipitació (mm)
Nota sobre les dades: s'avisa a l'usuari de la provisionalitat i no oficialitat d'aquestes dades
Logo AVAMET blanc
Web allotjada a Sollutia
Llicència de Creative CommonsLa web d'AVAMET i els seus continguts estan subjectes a una llicència de
Reconeixement - No Comercial - Compartir igual
Properes estacions: Catadau - Urb. Lloma Molina (Inforatge), Altea - Club Nàutic d'Altea (Soci), Ares del Maestrat (Ajuntament Soci),      - - - - -      Últimes estacions: Ontinyent - El Pilar (Soci), Asp - Poliesportiu (Soci), Jacarilla - centro (MeteOrihuela), Elx - Maitino/Vallverda/Velarde/Matola/Ferriol (Soci TiempoElche.com) - - -